Time;durP1;ratioP1;P1;durP2;ratioP2;P2;SDS_P1;SDS_P2;PMS_P1;PMS_P2;Temp;Humidity;BMP_temperature;BMP_pressure;BME280_temperature;BME280_humidity;BME280_pressure;Samples;Min_cycle;Max_cycle;Signal;HPM_P1;HPM_P2
2021/09/13 00:02:29;;;;;;;31.88;22.27;;;;;;;14.46;100.00;100854.97;2615254;31;20030;-44
2021/09/13 00:04:56;;;;;;;31.35;21.67;;;;;;;14.42;100.00;100860.09;2616677;31;20089;-45
2021/09/13 00:07:24;;;;;;;29.90;20.33;;;;;;;14.40;100.00;100856.63;2615459;31;20126;-44
2021/09/13 00:09:51;;;;;;;32.63;22.02;;;;;;;14.33;100.00;100863.44;2614797;36;20031;-45
2021/09/13 00:12:18;;;;;;;35.90;22.15;;;;;;;14.32;100.00;100853.94;2614873;31;20574;-44
2021/09/13 00:14:45;;;;;;;34.15;22.15;;;;;;;14.30;100.00;100855.66;2614641;36;20037;-43
2021/09/13 00:17:13;;;;;;;35.75;23.77;;;;;;;14.27;100.00;100851.31;2617158;31;20030;-43
2021/09/13 00:19:40;;;;;;;38.55;24.67;;;;;;;14.23;100.00;100852.09;2617278;31;20038;-43
2021/09/13 00:22:07;;;;;;;38.88;24.00;;;;;;;14.22;100.00;100854.69;2615133;31;20038;-44
2021/09/13 00:24:34;;;;;;;30.83;22.17;;;;;;;14.16;100.00;100855.47;2615955;36;20481;-47
2021/09/13 00:27:01;;;;;;;36.92;22.17;;;;;;;14.08;100.00;100854.50;2615754;36;20034;-42
2021/09/13 00:29:28;;;;;;;37.50;23.95;;;;;;;14.07;100.00;100860.50;2615989;36;20034;-44
2021/09/13 00:31:55;;;;;;;41.50;24.92;;;;;;;14.06;100.00;100868.19;2616138;31;20157;-43
2021/09/13 00:34:23;;;;;;;36.90;24.17;;;;;;;14.09;100.00;100860.50;2616198;36;20784;-44
2021/09/13 00:36:50;;;;;;;38.60;24.45;;;;;;;14.04;100.00;100867.28;2615421;36;20041;-44
2021/09/13 00:39:17;;;;;;;37.53;24.73;;;;;;;14.01;100.00;100858.69;2615622;36;20065;-43
2021/09/13 00:41:44;;;;;;;40.33;24.52;;;;;;;13.98;100.00;100863.78;2615754;31;20022;-42
2021/09/13 00:44:11;;;;;;;37.53;23.85;;;;;;;13.96;100.00;100864.63;2616065;31;20030;-43
2021/09/13 00:46:38;;;;;;;37.78;24.38;;;;;;;13.92;100.00;100860.28;2615497;36;20046;-43
2021/09/13 00:49:05;;;;;;;41.20;25.20;;;;;;;13.92;100.00;100861.13;2615960;31;20129;-45
2021/09/13 00:51:33;;;;;;;39.15;24.75;;;;;;;13.85;100.00;100863.59;2615422;36;20038;-43
2021/09/13 00:54:00;;;;;;;40.42;24.27;;;;;;;13.83;100.00;100857.56;2615966;31;20066;-44
2021/09/13 00:56:27;;;;;;;40.97;24.40;;;;;;;13.81;100.00;100848.94;2615256;36;20082;-46
2021/09/13 00:58:54;;;;;;;41.00;24.13;;;;;;;13.74;100.00;100861.72;2615851;31;20057;-51
2021/09/13 01:01:22;;;;;;;40.83;26.67;;;;;;;13.78;100.00;100852.34;2616137;31;20045;-44
2021/09/13 01:03:49;;;;;;;44.10;26.38;;;;;;;13.77;100.00;100855.75;2615848;36;20055;-44
2021/09/13 01:06:18;;;;;;;42.33;26.48;;;;;;;13.74;100.00;100851.44;2617136;31;20050;-45
2021/09/13 01:08:45;;;;;;;48.95;27.70;;;;;;;13.71;100.00;100847.94;2618764;31;20474;-42
2021/09/13 01:11:12;;;;;;;49.72;27.35;;;;;;;13.72;100.00;100849.66;2615715;36;20034;-50
2021/09/13 01:13:39;;;;;;;42.45;26.15;;;;;;;13.67;100.00;100847.00;2614866;36;20034;-43
2021/09/13 01:16:06;;;;;;;46.35;27.35;;;;;;;13.62;100.00;100846.09;2614834;36;20379;-45
2021/09/13 01:18:34;;;;;;;50.17;27.92;;;;;;;13.60;100.00;100846.91;2617342;31;20037;-46
2021/09/13 01:21:02;;;;;;;47.10;28.58;;;;;;;13.65;100.00;100845.28;2616703;36;20038;-41
2021/09/13 01:23:31;;;;;;;54.55;28.30;;;;;;;13.61;100.00;100846.06;2616632;31;20586;-43
2021/09/13 01:25:59;;;;;;;53.20;29.05;;;;;;;13.57;100.00;100849.44;2616463;31;20034;-42
2021/09/13 01:28:26;;;;;;;45.92;28.80;;;;;;;13.52;100.00;100849.34;2614987;31;20030;-45
2021/09/13 01:30:54;;;;;;;48.42;28.88;;;;;;;13.49;100.00;100842.44;2616323;31;20037;-43
2021/09/13 01:33:22;;;;;;;49.20;29.73;;;;;;;13.44;100.00;100845.78;2615678;36;20094;-44
2021/09/13 01:35:50;;;;;;;52.33;29.40;;;;;;;13.42;100.00;100845.78;2615210;36;20558;-43
2021/09/13 01:38:21;;;;;;;50.55;28.65;;;;;;;13.38;100.00;100851.69;2615745;31;20022;-44
2021/09/13 01:40:50;;;;;;;59.55;30.75;;;;;;;13.42;100.00;100850.91;2616754;31;20046;-42
2021/09/13 01:43:17;;;;;;;54.50;31.20;;;;;;;13.39;100.00;100850.00;2615397;36;20061;-44
2021/09/13 01:45:44;;;;;;;49.92;28.73;;;;;;;13.36;100.00;100850.81;2615571;36;20038;-41
2021/09/13 01:48:11;;;;;;;51.78;29.90;;;;;;;13.33;100.00;100843.03;2615264;36;20053;-43
2021/09/13 01:50:40;;;;;;;47.67;29.60;;;;;;;13.31;100.00;100852.47;2615382;36;20506;-44
2021/09/13 01:53:07;;;;;;;54.38;30.75;;;;;;;13.29;100.00;100843.81;2615447;36;20150;-44
2021/09/13 01:55:34;;;;;;;60.05;31.55;;;;;;;13.27;100.00;100853.25;2616313;31;20053;-42
2021/09/13 01:58:02;;;;;;;54.65;31.27;;;;;;;13.25;100.00;100857.47;2615838;31;20038;-45
2021/09/13 02:00:29;;;;;;;59.22;31.90;;;;;;;13.18;100.00;100866.75;2616059;31;20037;-41
2021/09/13 02:02:56;;;;;;;58.05;31.35;;;;;;;13.19;100.00;100865.91;2616516;31;20038;-43
2021/09/13 02:05:24;;;;;;;52.60;30.75;;;;;;;13.17;100.00;100871.84;2615809;36;20033;-44
2021/09/13 02:07:51;;;;;;;56.63;31.95;;;;;;;13.12;100.00;100876.06;2615120;36;20057;-46
2021/09/13 02:10:19;;;;;;;62.47;32.15;;;;;;;13.07;100.00;100872.53;2614802;36;20030;-43
2021/09/13 02:12:46;;;;;;;60.35;32.85;;;;;;;13.06;100.00;100875.94;2616221;31;20438;-44
2021/09/13 02:15:13;;;;;;;61.17;32.05;;;;;;;13.04;100.00;100880.22;2616102;31;20035;-43
2021/09/13 02:17:40;;;;;;;63.80;34.53;;;;;;;13.03;100.00;100883.59;2615261;36;20139;-44
2021/09/13 02:20:08;;;;;;;61.08;33.13;;;;;;;13.04;100.00;100882.78;2615801;31;20069;-45
2021/09/13 02:22:35;;;;;;;67.18;34.42;;;;;;;13.03;100.00;100879.31;2615909;36;20466;-41
2021/09/13 02:25:03;;;;;;;63.08;34.92;;;;;;;13.02;100.00;100881.88;2616470;31;20435;-46
2021/09/13 02:27:30;;;;;;;67.68;35.65;;;;;;;13.03;100.00;100881.88;2615995;31;20046;-40
2021/09/13 02:29:57;;;;;;;66.45;34.33;;;;;;;-145.42;100.00;56955.94;2615692;36;20438;-42
2021/09/13 02:32:24;;;;;;;64.07;34.63;;;;;;;-145.42;100.00;56955.94;2615481;31;20886;-45
2021/09/13 02:34:52;;;;;;;68.63;34.75;;;;;;;-145.42;100.00;56955.94;2614898;36;20034;-43
2021/09/13 02:37:19;;;;;;;72.40;36.30;;;;;;;-145.42;100.00;56955.94;2615112;36;20037;-46
2021/09/13 02:39:46;;;;;;;71.05;36.33;;;;;;;-145.42;100.00;56955.94;2615734;36;20112;-45
2021/09/13 02:42:13;;;;;;;62.85;35.50;;;;;;;-145.42;100.00;56955.94;2615231;36;20057;-40
2021/09/13 02:44:40;;;;;;;73.03;38.20;;;;;;;-145.42;100.00;56955.94;2616335;31;20029;-44
2021/09/13 02:47:07;;;;;;;72.40;37.50;;;;;;;-145.42;100.00;56955.94;2615523;31;20042;-44
2021/09/13 02:49:34;;;;;;;69.93;35.08;;;;;;;-145.42;100.00;56955.94;2616355;31;20569;-43
2021/09/13 02:52:02;;;;;;;67.13;34.65;;;;;;;-145.42;100.00;56955.94;2616252;31;20034;-43
2021/09/13 02:54:29;;;;;;;78.00;38.53;;;;;;;-145.42;100.00;56955.94;2614822;36;20038;-42
2021/09/13 02:56:56;;;;;;;66.40;35.45;;;;;;;-145.42;100.00;56955.94;2615301;31;20039;-49
2021/09/13 02:59:23;;;;;;;76.13;38.42;;;;;;;-145.42;100.00;56955.94;2614784;36;20042;-42
2021/09/13 03:01:51;;;;;;;74.10;37.15;;;;;;;-145.42;100.00;56955.94;2615123;31;20026;-41
2021/09/13 03:04:18;;;;;;;77.55;37.85;;;;;;;-145.42;100.00;56955.94;2616848;31;20058;-43
2021/09/13 03:06:45;;;;;;;90.10;40.60;;;;;;;-145.42;100.00;56955.94;2616776;31;20038;-43
2021/09/13 03:09:12;;;;;;;86.60;40.17;;;;;;;-145.42;100.00;56955.94;2616501;31;20031;-42
2021/09/13 03:11:40;;;;;;;82.60;41.30;;;;;;;13.00;100.00;100871.56;2615522;36;20038;-48
2021/09/13 03:14:07;;;;;;;80.45;42.67;;;;;;;-145.42;100.00;56955.94;2616944;31;20557;-45
2021/09/13 03:16:34;;;;;;;74.95;39.85;;;;;;;13.01;100.00;100873.31;2615567;31;20042;-42
2021/09/13 03:19:02;;;;;;;79.80;38.95;;;;;;;12.99;100.00;100870.72;2614758;36;20570;-44
2021/09/13 03:21:29;;;;;;;76.22;39.95;;;;;;;13.00;100.00;100880.16;2614944;31;20042;-41
2021/09/13 03:23:56;;;;;;;80.25;41.35;;;;;;;13.03;100.00;100874.19;2615366;36;20035;-45
2021/09/13 03:26:23;;;;;;;79.93;39.70;;;;;;;-145.42;100.00;56955.94;2614885;36;20038;-44
2021/09/13 03:28:50;;;;;;;76.15;39.47;;;;;;;-145.42;100.00;56955.94;2615852;31;20570;-46
2021/09/13 03:31:17;;;;;;;86.55;42.67;;;;;;;13.19;100.00;100883.06;2614906;36;20574;-43
2021/09/13 03:33:44;;;;;;;75.28;39.75;;;;;;;-145.42;100.00;56955.94;2615180;36;20026;-41
2021/09/13 03:36:11;;;;;;;78.28;39.95;;;;;;;-145.42;100.00;56955.94;2615534;31;20031;-42
2021/09/13 03:38:38;;;;;;;74.15;39.67;;;;;;;-145.42;100.00;56955.94;2615237;36;20428;-46
2021/09/13 03:41:06;;;;;;;81.47;40.58;;;;;;;-145.42;100.00;56955.94;2616032;31;20450;-45
2021/09/13 03:43:33;;;;;;;75.22;39.60;;;;;;;-145.42;100.00;56955.94;2617411;31;20057;-43
2021/09/13 03:46:00;;;;;;;73.82;38.40;;;;;;;13.28;100.00;100888.41;2616151;31;20039;-47
2021/09/13 03:48:27;;;;;;;80.10;38.72;;;;;;;-145.42;100.00;56955.94;2615218;36;20053;-44
2021/09/13 03:50:54;;;;;;;72.82;40.00;;;;;;;13.32;100.00;100889.31;2615514;36;20027;-42
2021/09/13 03:53:22;;;;;;;72.97;39.50;;;;;;;-145.42;100.00;56955.94;2615696;36;20045;-42
2021/09/13 03:55:49;;;;;;;71.60;37.63;;;;;;;-145.42;100.00;56955.94;2615652;36;20034;-41
2021/09/13 03:58:16;;;;;;;71.35;38.92;;;;;;;-145.42;100.00;56955.94;2615609;36;20038;-55
2021/09/13 04:00:44;;;;;;;65.13;37.05;;;;;;;-145.42;100.00;56955.94;2617128;31;20034;-41
2021/09/13 04:03:16;;;;;;;66.10;36.15;;;;;;;-145.42;100.00;56955.94;2616239;31;20090;-43
2021/09/13 04:05:47;;;;;;;68.78;36.90;;;;;;;-145.42;100.00;56955.94;2617729;31;20035;-43
2021/09/13 04:08:37;;;;;;;65.63;36.75;;;;;;;-145.42;100.00;56955.94;2615636;36;20057;-47
2021/09/13 04:11:20;;;;;;;61.03;36.17;;;;;;;-145.42;100.00;56955.94;2580408;36;2004413;-42
2021/09/13 04:13:47;;;;;;;58.35;35.10;;;;;;;-145.42;100.00;56955.94;2615793;36;20042;-41
2021/09/13 04:16:14;;;;;;;58.35;33.97;;;;;;;-145.42;100.00;56955.94;2615523;31;20036;-49
2021/09/13 04:18:41;;;;;;;59.20;35.10;;;;;;;-145.42;100.00;56955.94;2616417;36;20450;-42
2021/09/13 04:21:09;;;;;;;57.95;34.33;;;;;;;-145.42;100.00;56955.94;2615966;31;20038;-43
2021/09/13 04:23:36;;;;;;;55.58;33.42;;;;;;;-145.42;100.00;56955.94;2615610;36;20030;-43
2021/09/13 04:26:04;;;;;;;58.58;33.58;;;;;;;-145.42;100.00;56955.94;2615681;36;20037;-45
2021/09/13 04:28:31;;;;;;;53.97;33.08;;;;;;;-145.42;100.00;56955.94;2615430;36;20038;-43
2021/09/13 04:30:59;;;;;;;56.45;33.17;;;;;;;-145.42;100.00;56955.94;2616155;31;20103;-43
2021/09/13 04:33:26;;;;;;;56.92;33.20;;;;;;;-145.42;100.00;56955.94;2615878;36;20019;-42
2021/09/13 04:35:53;;;;;;;51.08;31.38;;;;;;;-145.42;100.00;56955.94;2615254;36;20039;-44
2021/09/13 04:38:20;;;;;;;54.45;33.25;;;;;;;-145.42;100.00;56955.94;2615689;31;20558;-43
2021/09/13 04:40:47;;;;;;;48.28;31.00;;;;;;;-145.42;100.00;56955.94;2616211;31;20443;-42
2021/09/13 04:43:15;;;;;;;55.80;33.03;;;;;;;-145.42;100.00;56955.94;2616938;31;20089;-42
2021/09/13 04:45:42;;;;;;;50.78;30.95;;;;;;;-145.42;100.00;56955.94;2616142;36;20045;-42
2021/09/13 04:48:09;;;;;;;53.72;31.95;;;;;;;-145.42;100.00;56955.94;2617082;31;20034;-40
2021/09/13 04:50:36;;;;;;;54.88;32.83;;;;;;;-145.42;100.00;56955.94;2616236;36;20446;-42
2021/09/13 04:53:03;;;;;;;55.47;33.38;;;;;;;-145.42;100.00;56955.94;2615651;36;20046;-43
2021/09/13 04:55:31;;;;;;;57.10;33.95;;;;;;;-145.42;100.00;56955.94;2617066;31;20046;-45
2021/09/13 04:57:58;;;;;;;59.08;33.53;;;;;;;-145.42;100.00;56955.94;2614959;36;20031;-44
2021/09/13 05:00:25;;;;;;;57.35;34.35;;;;;;;-145.42;100.00;56955.94;2615369;36;20065;-43
2021/09/13 05:02:52;;;;;;;61.15;35.30;;;;;;;-145.42;100.00;56955.94;2615772;31;20038;-43
2021/09/13 05:05:20;;;;;;;59.63;36.03;;;;;;;-145.42;100.00;56955.94;2615836;31;20056;-42
2021/09/13 05:07:47;;;;;;;61.05;35.83;;;;;;;-145.42;100.00;56955.94;2615331;36;20031;-44
2021/09/13 05:10:14;;;;;;;66.85;35.55;;;;;;;-145.42;100.00;56955.94;2615444;36;20038;-42
2021/09/13 05:12:41;;;;;;;59.63;34.33;;;;;;;-145.42;100.00;56955.94;2615297;36;20037;-44
2021/09/13 05:15:09;;;;;;;64.25;37.22;;;;;;;-145.42;100.00;56955.94;2615550;36;20034;-50
2021/09/13 05:17:36;;;;;;;66.88;36.88;;;;;;;-145.42;100.00;56955.94;2614948;36;20057;-45
2021/09/13 05:20:04;;;;;;;64.85;36.58;;;;;;;-145.42;100.00;56955.94;2615509;36;20042;-45
2021/09/13 05:22:31;;;;;;;61.22;35.38;;;;;;;12.68;100.00;100930.03;2615825;31;20042;-43
2021/09/13 05:24:58;;;;;;;59.65;35.83;;;;;;;-145.42;100.00;56955.94;2615240;36;20579;-42
2021/09/13 05:27:26;;;;;;;60.33;36.80;;;;;;;-145.42;100.00;56955.94;2615114;36;20958;-47
2021/09/13 05:29:53;;;;;;;63.40;36.80;;;;;;;-145.42;100.00;56955.94;2615395;36;20035;-42
2021/09/13 05:32:20;;;;;;;59.88;36.65;;;;;;;-145.42;100.00;56955.94;2615550;36;22252;-44
2021/09/13 05:34:47;;;;;;;66.45;35.85;;;;;;;-145.42;100.00;56955.94;2615997;31;20049;-43
2021/09/13 05:37:14;;;;;;;57.90;34.92;;;;;;;-145.42;100.00;56955.94;2615179;36;20037;-45
2021/09/13 05:39:41;;;;;;;56.08;34.75;;;;;;;12.92;100.00;100934.81;2615320;36;20034;-42
2021/09/13 05:42:08;;;;;;;59.58;35.03;;;;;;;12.95;100.00;100934.88;2616093;31;20026;-51
2021/09/13 05:44:35;;;;;;;56.40;35.40;;;;;;;13.00;100.00;100938.41;2615837;31;20030;-44
2021/09/13 05:47:03;;;;;;;55.92;35.90;;;;;;;13.04;100.00;100931.63;2614979;36;20030;-44
2021/09/13 05:49:30;;;;;;;50.50;33.08;;;;;;;13.09;100.00;100928.31;2617641;31;20034;-43
2021/09/13 05:51:57;;;;;;;52.30;33.17;;;;;;;13.15;100.00;100933.56;2615545;31;20038;-45
2021/09/13 05:54:27;;;;;;;45.67;31.48;;;;;;;13.23;100.00;100926.03;2614333;36;20030;-44
2021/09/13 05:56:56;;;;;;;47.67;31.05;;;;;;;-145.42;100.00;56955.94;2615162;36;20497;-41
2021/09/13 05:59:25;;;;;;;46.22;30.35;;;;;;;-145.42;100.00;56955.94;2615905;31;20457;-41
2021/09/13 06:01:52;;;;;;;39.55;27.63;;;;;;;-145.42;100.00;56955.94;2615455;36;20124;-44
2021/09/13 06:04:19;;;;;;;32.25;24.27;;;;;;;-145.42;100.00;56955.94;2615662;36;20042;-41
2021/09/13 06:06:46;;;;;;;27.17;21.13;;;;;;;-145.42;100.00;56955.94;2615591;36;20447;-41
2021/09/13 06:09:13;;;;;;;22.77;18.58;;;;;;;-145.42;100.00;56955.94;2615789;36;20039;-42
2021/09/13 06:11:41;;;;;;;23.52;15.32;;;;;;;-145.42;100.00;56955.94;2615776;31;20038;-44
2021/09/13 06:14:08;;;;;;;20.15;13.07;;;;;;;-145.42;100.00;56955.94;2615193;36;20166;-46
2021/09/13 06:16:35;;;;;;;17.45;11.85;;;;;;;-145.42;100.00;56955.94;2615491;31;20061;-42
2021/09/13 06:19:03;;;;;;;13.77;10.20;;;;;;;19.56;100.00;100962.66;2615101;31;20042;-42
2021/09/13 06:21:30;;;;;;;10.93;9.30;;;;;;;19.99;96.72;100964.97;2615564;36;20605;-43
2021/09/13 06:23:57;;;;;;;10.82;8.93;;;;;;;19.92;96.64;100965.88;2615654;36;20800;-47
2021/09/13 06:26:24;;;;;;;10.75;8.57;;;;;;;20.09;94.71;100969.19;2614830;36;20038;-43
2021/09/13 06:28:51;;;;;;;10.05;8.10;;;;;;;20.16;93.73;100962.22;2614680;36;20038;-43
2021/09/13 06:31:18;;;;;;;10.45;6.88;;;;;;;20.98;87.34;100976.91;2614921;31;20038;-43
2021/09/13 06:33:46;;;;;;;10.75;7.35;;;;;;;21.51;84.03;100977.13;2615489;31;20445;-43
2021/09/13 06:36:13;;;;;;;10.30;6.20;;;;;;;21.56;82.16;100976.16;2614233;36;20620;-44
2021/09/13 06:38:42;;;;;;;9.88;6.25;;;;;;;22.42;78.63;100977.38;2615637;31;20065;-42
2021/09/13 06:41:10;;;;;;;7.93;6.25;;;;;;;22.85;76.04;100976.53;2614864;31;20031;-44
2021/09/13 06:43:38;;;;;;;8.38;5.63;;;;;;;23.60;71.30;100980.13;2614797;36;20061;-49
2021/09/13 06:46:32;;;;;;;8.57;5.10;;;;;;;23.48;68.92;100983.00;2614818;31;20137;-44
2021/09/13 06:49:00;;;;;;;7.38;4.55;;;;;;;24.34;67.50;100987.88;2614932;36;20086;-44
2021/09/13 06:51:27;;;;;;;7.85;5.05;;;;;;;24.30;66.34;100986.22;2615359;31;20057;-47
2021/09/13 06:53:54;;;;;;;6.80;4.97;;;;;;;24.34;65.80;100989.63;2614232;36;20061;-44
2021/09/13 06:56:21;;;;;;;9.95;5.05;;;;;;;23.72;67.56;100989.47;2616129;36;20038;-42
2021/09/13 06:58:48;;;;;;;7.25;4.57;;;;;;;23.85;68.70;100997.00;2616783;31;20035;-41
2021/09/13 07:01:15;;;;;;;5.50;4.10;;;;;;;24.70;64.73;101005.28;2614972;31;20026;-46
2021/09/13 07:03:43;;;;;;;6.95;4.25;;;;;;;25.44;61.83;100999.63;2614983;31;20039;-42
2021/09/13 07:06:10;;;;;;;4.78;4.30;;;;;;;24.38;64.31;100999.16;2614203;36;20035;-43
2021/09/13 07:08:37;;;;;;;9.57;4.75;;;;;;;22.53;71.94;100991.06;2614644;31;20042;-45
2021/09/13 07:11:06;;;;;;;6.50;4.20;;;;;;;21.46;77.86;100992.81;2613969;36;20061;-42
2021/09/13 07:13:33;;;;;;;7.13;3.88;;;;;;;19.99;87.15;100985.75;2615061;31;20577;-44
2021/09/13 07:16:05;;;;;;;8.70;4.95;;;;;;;19.41;89.63;100986.13;2615069;36;20129;-45
2021/09/13 07:18:32;;;;;;;9.55;4.97;;;;;;;18.97;91.54;100988.09;2616166;31;20034;-43
2021/09/13 07:20:59;;;;;;;7.13;4.65;;;;;;;18.41;97.51;100983.03;2615809;31;20069;-45
2021/09/13 07:23:27;;;;;;;11.50;6.07;;;;;;;17.99;100.00;100985.66;2616151;31;20434;-43
2021/09/13 07:25:54;;;;;;;6.43;4.55;;;;;;;17.82;100.00;100987.38;2615197;31;20034;-42
2021/09/13 07:28:21;;;;;;;5.80;4.53;;;;;;;17.94;100.00;100992.56;2616058;36;20453;-42
2021/09/13 07:30:49;;;;;;;6.85;4.88;;;;;;;17.96;100.00;100990.84;2615346;36;20031;-42
2021/09/13 07:33:16;;;;;;;7.25;4.18;;;;;;;17.91;100.00;100995.16;2615867;36;20031;-44
2021/09/13 07:35:43;;;;;;;7.25;4.00;;;;;;;17.81;100.00;100991.69;2615386;36;20038;-44
2021/09/13 07:38:10;;;;;;;7.30;4.38;;;;;;;17.72;100.00;101001.16;2615036;36;20053;-43
2021/09/13 07:40:37;;;;;;;8.13;4.50;;;;;;;17.65;100.00;101002.00;2615707;36;20054;-43
2021/09/13 07:43:04;;;;;;;6.32;3.47;;;;;;;17.90;100.00;101010.72;2615438;31;20038;-44
2021/09/13 07:45:31;;;;;;;7.40;4.07;;;;;;;17.84;100.00;101009.00;2615641;36;20038;-42
2021/09/13 07:47:59;;;;;;;5.95;3.85;;;;;;;17.90;100.00;101011.56;2615399;36;20559;-43
2021/09/13 07:50:26;;;;;;;8.48;4.30;;;;;;;17.92;100.00;101014.16;2615253;36;20885;-41
2021/09/13 07:52:53;;;;;;;9.13;3.92;;;;;;;18.00;100.00;101009.84;2616184;31;20057;-44
2021/09/13 07:55:20;;;;;;;5.32;3.92;;;;;;;18.22;100.00;101008.13;2615986;31;20037;-42
2021/09/13 07:57:47;;;;;;;7.30;4.00;;;;;;;18.10;100.00;101016.75;2615606;31;20038;-43
2021/09/13 08:00:23;;;;;;;4.45;3.08;;;;;;;18.48;96.02;101015.84;2615761;36;20034;-44
2021/09/13 08:02:51;;;;;;;6.03;3.45;;;;;;;18.96;95.23;101024.44;2617495;31;20035;-45
2021/09/13 08:05:33;;;;;;;7.90;3.10;;;;;;;18.68;95.22;101026.22;2620546;31;20035;-42
2021/09/13 08:08:05;;;;;;;5.40;3.47;;;;;;;18.49;94.56;101034.03;2579778;31;2004365;-45
2021/09/13 08:10:32;;;;;;;5.57;3.22;;;;;;;18.68;94.30;101027.06;2615856;31;20034;-46
2021/09/13 08:12:59;;;;;;;5.25;3.13;;;;;;;19.89;87.77;101031.75;2615687;36;20034;-40
2021/09/13 08:15:27;;;;;;;3.55;2.97;;;;;;;20.62;85.43;101037.25;2615567;31;20030;-43
2021/09/13 08:17:54;;;;;;;4.07;2.90;;;;;;;20.98;79.88;101051.56;2615221;31;20046;-41
2021/09/13 08:20:23;;;;;;;9.38;2.92;;;;;;;20.67;82.58;101045.84;2615608;31;20030;-44
2021/09/13 08:22:50;;;;;;;5.55;2.95;;;;;;;20.82;80.73;101036.13;2616560;31;20418;-42
2021/09/13 08:25:18;;;;;;;6.57;3.30;;;;;;;20.35;82.70;101037.44;2615890;36;20062;-46
2021/09/13 08:27:46;;;;;;;6.32;2.70;;;;;;;19.92;85.36;101033.44;2615300;36;20042;-45
2021/09/13 08:30:14;;;;;;;7.07;2.90;;;;;;;19.59;82.33;101037.97;2615950;36;20034;-46
2021/09/13 08:32:41;;;;;;;4.70;2.78;;;;;;;19.07;86.46;101036.50;2615746;36;20034;-46
2021/09/13 08:35:10;;;;;;;4.88;2.42;;;;;;;19.34;87.89;101042.44;2616378;31;20031;-44
2021/09/13 08:37:38;;;;;;;3.33;2.80;;;;;;;19.73;86.98;101046.56;2615360;31;20030;-45
2021/09/13 08:40:06;;;;;;;5.90;2.58;;;;;;;19.42;87.69;101042.41;2615817;36;20057;-47
2021/09/13 08:42:42;;;;;;;4.63;2.75;;;;;;;19.53;87.78;101051.88;2615917;31;20030;-44
2021/09/13 08:45:12;;;;;;;5.22;2.75;;;;;;;19.37;87.88;101046.78;2615482;31;20061;-45
2021/09/13 08:47:52;;;;;;;3.85;2.70;;;;;;;19.63;85.66;101051.84;2615092;36;20037;-44
2021/09/13 08:50:29;;;;;;;4.40;2.13;;;;;;;19.49;86.47;101054.47;2616629;31;20066;-42
2021/09/13 08:53:01;;;;;;;6.07;2.50;;;;;;;19.56;84.10;101059.66;2616279;31;20042;-44
2021/09/13 08:55:29;;;;;;;4.63;2.88;;;;;;;19.51;84.12;101056.22;2616080;31;20034;-43
2021/09/13 08:57:58;;;;;;;3.42;2.10;;;;;;;19.72;82.82;101055.25;2615415;36;20027;-44
2021/09/13 09:00:26;;;;;;;5.45;2.53;;;;;;;19.55;84.23;101057.94;2615059;36;20593;-46
2021/09/13 09:02:54;;;;;;;2.63;1.80;;;;;;;19.52;82.77;101064.88;2615078;31;20045;-42
2021/09/13 09:05:22;;;;;;;6.18;2.45;;;;;;;20.04;80.79;101067.16;2614786;36;20039;-46
2021/09/13 09:07:52;;;;;;;4.40;2.78;;;;;;;20.09;82.46;101070.59;2615704;31;20030;-44
2021/09/13 09:10:26;;;;;;;4.55;2.63;;;;;;;20.62;80.15;101065.88;2615334;36;20038;-45
2021/09/13 09:12:59;;;;;;;5.55;2.40;;;;;;;20.54;79.11;101069.38;2622907;31;20771;-41
2021/09/13 09:15:28;;;;;;;4.28;2.05;;;;;;;20.84;79.95;101070.84;2615389;31;20035;-46
2021/09/13 09:17:58;;;;;;;2.88;2.00;;;;;;;20.87;79.03;101069.94;2615487;36;20090;-42
2021/09/13 09:20:26;;;;;;;4.53;2.30;;;;;;;20.76;79.37;101069.19;2615769;31;20034;-43
2021/09/13 09:23:03;;;;;;;4.20;2.38;;;;;;;20.58;78.86;101068.50;2615619;36;20077;-41
2021/09/13 09:25:36;;;;;;;6.18;2.22;;;;;;;21.02;84.14;101079.31;2615324;36;20039;-44
2021/09/13 09:28:06;;;;;;;4.32;2.08;;;;;;;21.52;76.01;101083.94;2578528;36;2004562;-45
2021/09/13 09:30:38;;;;;;;3.30;2.05;;;;;;;21.41;76.81;101088.44;2615280;31;20598;-45
2021/09/13 09:33:13;;;;;;;2.22;1.67;;;;;;;21.40;73.44;101083.22;2614951;36;20030;-43
2021/09/13 09:35:49;;;;;;;4.38;2.15;;;;;;;21.03;75.60;101086.22;2614847;36;20041;-53
2021/09/13 09:38:37;;;;;;;5.07;2.08;;;;;;;21.00;76.28;101084.53;2615215;36;20989;-42
2021/09/13 09:41:08;;;;;;;2.85;1.70;;;;;;;21.21;76.57;101090.38;2579060;31;2004372;-41
2021/09/13 09:43:59;;;;;;;4.95;1.67;;;;;;;21.04;77.66;101086.22;2615765;31;20042;-44
2021/09/13 09:46:41;;;;;;;2.55;1.35;;;;;;;20.87;76.34;101085.53;2617429;31;20034;-43
2021/09/13 09:49:17;;;;;;;4.10;1.42;;;;;;;21.58;71.66;101094.31;2579570;31;2004434;-42
2021/09/13 09:51:49;;;;;;;3.10;1.50;;;;;;;21.52;73.52;101098.72;2615491;36;20451;-43
2021/09/13 09:54:25;;;;;;;4.72;1.50;;;;;;;21.28;74.08;101085.09;2614906;36;20061;-41
2021/09/13 09:57:04;;;;;;;4.68;1.67;;;;;;;21.59;75.40;101090.81;2615608;31;20035;-45
2021/09/13 09:59:36;;;;;;;2.90;1.38;;;;;;;21.94;71.68;101085.97;2633496;31;20034;-46
2021/09/13 10:02:15;;;;;;;2.60;1.45;;;;;;;23.24;65.14;101084.59;2578873;31;2004522;-43
2021/09/13 10:04:46;;;;;;;3.38;1.30;;;;;;;25.92;55.30;101096.09;2614698;31;20038;-51
2021/09/13 10:07:16;;;;;;;1.58;1.05;;;;;;;26.44;54.22;101098.81;2614271;31;20175;-48
2021/09/13 10:09:45;;;;;;;1.73;0.82;;;;;;;27.68;49.84;101103.94;2613867;31;20031;-46
2021/09/13 10:12:13;;;;;;;2.63;1.17;;;;;;;29.92;44.46;101099.56;2613787;31;20034;-43
2021/09/13 10:14:42;;;;;;;4.00;1.45;;;;;;;28.33;48.23;101099.63;2614456;31;20896;-45
2021/09/13 10:17:13;;;;;;;1.85;1.02;;;;;;;28.63;48.51;101105.38;2613318;36;20034;-46
2021/09/13 10:19:50;;;;;;;1.27;0.98;;;;;;;28.39;46.07;101098.53;2613285;36;20577;-49
2021/09/13 10:22:18;;;;;;;2.10;1.00;;;;;;;30.04;41.57;101109.50;2613768;31;20681;-42
2021/09/13 10:24:48;;;;;;;2.45;1.05;;;;;;;30.95;40.19;101108.47;2627829;31;20030;-43
2021/09/13 10:27:20;;;;;;;2.95;1.05;;;;;;;30.55;39.55;101104.34;2617891;31;20563;-45
2021/09/13 10:30:07;;;;;;;3.35;1.15;;;;;;;27.43;45.20;101105.81;2615728;31;20023;-44
2021/09/13 10:32:37;;;;;;;1.58;0.98;;;;;;;28.48;43.18;101106.03;2579495;31;2004433;-48
2021/09/13 10:35:06;;;;;;;1.48;0.90;;;;;;;26.62;45.60;101103.44;2615025;36;20030;-42
2021/09/13 10:37:40;;;;;;;1.17;0.90;;;;;;;26.43;47.75;101100.56;2614465;36;20578;-52
2021/09/13 10:40:09;;;;;;;2.03;0.88;;;;;;;26.65;45.22;101101.56;2614458;36;20057;-42
2021/09/13 10:42:37;;;;;;;1.45;0.80;;;;;;;25.78;48.17;101106.16;2615910;31;20038;-44
2021/09/13 10:45:11;;;;;;;2.20;1.20;;;;;;;27.04;46.85;101098.44;2614990;36;20419;-48
2021/09/13 10:47:41;;;;;;;1.80;1.10;;;;;;;29.11;40.44;101111.22;2614983;36;20835;-44
2021/09/13 10:50:17;;;;;;;1.13;1.02;;;;;;;28.01;43.15;101102.69;2618436;31;20506;-44
2021/09/13 10:52:46;;;;;;;2.25;1.05;;;;;;;28.38;42.79;101104.69;2614732;36;20035;-44
2021/09/13 10:55:13;;;;;;;4.65;0.80;;;;;;;29.76;41.36;101106.50;2614510;31;20038;-44
2021/09/13 10:58:01;;;;;;;1.63;0.75;;;;;;;28.47;41.31;101106.94;2614554;36;20042;-43
2021/09/13 11:00:40;;;;;;;1.85;0.90;;;;;;;29.97;38.73;101116.03;2615038;36;20453;-46
2021/09/13 11:03:29;;;;;;;1.33;0.90;;;;;;;33.76;33.32;101127.47;2578555;31;2004194;-49
2021/09/13 11:06:06;;;;;;;1.63;1.23;;;;;;;32.22;34.84;101114.72;2614575;31;20042;-47
2021/09/13 11:08:44;;;;;;;2.30;0.82;;;;;;;33.61;33.49;101124.00;2618457;36;20057;-46
2021/09/13 11:11:20;;;;;;;2.05;1.02;;;;;;;33.10;33.50;101129.81;2576723;36;2004334;-47
2021/09/13 11:14:19;;;;;;;2.33;1.17;;;;;;;32.11;35.04;101117.97;2614874;31;20038;-45
2021/09/13 11:16:49;;;;;;;1.50;0.95;;;;;;;33.65;31.37;101125.47;2577627;31;2004362;-48
2021/09/13 11:19:18;;;;;;;2.45;1.10;;;;;;;34.50;29.82;101128.81;2614312;31;20046;-47